createdAt,value
2023-12-19T00:00:32.138Z,20.65
2023-12-19T00:02:59.181Z,21.48
2023-12-19T00:05:26.286Z,22.42
2023-12-19T00:07:53.155Z,22.02
2023-12-19T00:10:20.037Z,20.85
2023-12-19T00:12:47.962Z,23.27
2023-12-19T00:15:15.135Z,21.38
2023-12-19T00:17:44.382Z,20.17
2023-12-19T00:20:11.784Z,20.40
2023-12-19T00:22:38.753Z,19.02
2023-12-19T00:25:06.117Z,19.05
2023-12-19T00:27:33.013Z,18.45
2023-12-19T00:29:59.919Z,17.70
2023-12-19T00:32:27.436Z,19.70
2023-12-19T00:34:54.870Z,15.98
2023-12-19T00:37:21.848Z,19.20
2023-12-19T00:39:48.704Z,16.88
2023-12-19T00:42:15.648Z,16.63
2023-12-19T00:44:42.493Z,16.88
2023-12-19T00:47:10.447Z,17.10
2023-12-19T00:49:37.543Z,17.10
2023-12-19T00:52:04.748Z,18.30
2023-12-19T00:54:31.573Z,17.20
2023-12-19T00:56:58.446Z,16.55
2023-12-19T00:59:25.360Z,16.10
2023-12-19T01:01:52.318Z,16.35
2023-12-19T01:04:20.895Z,16.15
2023-12-19T01:06:47.901Z,17.85
2023-12-19T01:09:14.879Z,16.90
2023-12-19T01:11:41.855Z,18.27
2023-12-19T01:14:08.750Z,17.20
2023-12-19T01:16:35.601Z,17.10
2023-12-19T01:19:04.490Z,17.13
2023-12-19T01:21:31.754Z,18.00
2023-12-19T01:23:58.627Z,16.65
2023-12-19T01:26:30.042Z,15.20
2023-12-19T01:28:57.601Z,15.90
2023-12-19T01:31:24.603Z,16.17
2023-12-19T01:33:52.865Z,16.35
2023-12-19T01:36:19.769Z,15.77
2023-12-19T01:38:46.849Z,14.25
2023-12-19T01:41:13.730Z,14.25
2023-12-19T01:43:40.554Z,14.88
2023-12-19T01:46:15.088Z,15.43
2023-12-19T01:48:42.576Z,16.20
2023-12-19T01:51:12.466Z,15.70
2023-12-19T01:53:41.650Z,15.55
2023-12-19T01:56:09.398Z,14.13
2023-12-19T01:58:38.076Z,15.95
2023-12-19T02:01:06.468Z,14.40
2023-12-19T02:03:34.361Z,15.40
2023-12-19T02:06:02.070Z,15.20
2023-12-19T02:08:29.212Z,14.27
2023-12-19T02:10:56.204Z,15.48
2023-12-19T02:13:23.247Z,15.05
2023-12-19T02:15:50.519Z,16.23
2023-12-19T02:18:20.481Z,16.30
2023-12-19T02:20:48.336Z,14.90
2023-12-19T02:23:16.194Z,16.05
2023-12-19T02:25:43.513Z,16.30
2023-12-19T02:28:10.575Z,15.27
2023-12-19T02:30:39.899Z,14.85
2023-12-19T02:33:08.892Z,15.13
2023-12-19T02:35:35.931Z,13.52
2023-12-19T02:38:02.849Z,14.07
2023-12-19T02:40:30.450Z,13.57
2023-12-19T02:42:57.596Z,14.65
2023-12-19T02:45:24.539Z,14.05
2023-12-19T02:47:51.765Z,14.35
2023-12-19T02:50:18.930Z,14.77
2023-12-19T02:52:46.021Z,13.13
2023-12-19T02:55:13.061Z,15.68
2023-12-19T02:57:40.175Z,14.10
2023-12-19T03:00:07.737Z,13.63
2023-12-19T03:02:34.682Z,15.25
2023-12-19T03:05:01.766Z,13.05
2023-12-19T03:07:28.803Z,14.10
2023-12-19T03:09:55.721Z,11.50
2023-12-19T03:12:22.623Z,12.32
2023-12-19T03:14:49.514Z,12.45
2023-12-19T03:17:16.400Z,11.32
2023-12-19T03:19:43.485Z,11.98
2023-12-19T03:22:10.514Z,12.20
2023-12-19T03:24:37.509Z,10.85
2023-12-19T03:27:04.576Z,11.27
2023-12-19T03:29:33.433Z,11.02
2023-12-19T03:32:00.422Z,10.52
2023-12-19T03:34:27.403Z,10.25
2023-12-19T03:36:54.299Z,9.73
2023-12-19T03:39:21.167Z,8.80
2023-12-19T03:42:10.197Z,8.20
2023-12-19T03:44:35.505Z,9.18
2023-12-19T03:47:02.524Z,7.15
2023-12-19T03:49:29.458Z,8.63
2023-12-19T03:51:57.082Z,8.07
2023-12-19T03:54:25.791Z,8.77
2023-12-19T03:56:54.450Z,8.52
2023-12-19T03:59:21.399Z,8.18
2023-12-19T04:01:49.653Z,9.23
2023-12-19T04:04:18.543Z,8.00
2023-12-19T04:06:46.059Z,9.43
2023-12-19T04:09:12.985Z,8.88
2023-12-19T04:11:47.941Z,8.73
2023-12-19T04:14:17.997Z,9.23
2023-12-19T04:16:44.820Z,9.48
2023-12-19T04:19:11.811Z,9.23
2023-12-19T04:21:40.782Z,10.10
2023-12-19T04:24:07.948Z,8.40
2023-12-19T04:26:34.791Z,8.63
2023-12-19T04:29:01.649Z,9.35
2023-12-19T04:31:28.621Z,8.27
2023-12-19T04:33:59.016Z,8.27
2023-12-19T04:36:26.693Z,8.65
2023-12-19T04:38:53.569Z,7.65
2023-12-19T04:41:20.597Z,7.63
2023-12-19T04:43:47.551Z,7.80
2023-12-19T04:46:16.491Z,7.43
2023-12-19T04:48:43.708Z,8.20
2023-12-19T04:51:21.091Z,8.13
2023-12-19T04:53:48.958Z,7.28
2023-12-19T04:56:20.358Z,8.32
2023-12-19T04:58:47.539Z,7.80
2023-12-19T05:01:15.184Z,7.63
2023-12-19T05:03:43.624Z,8.13
2023-12-19T05:06:11.291Z,7.07
2023-12-19T05:08:38.282Z,6.80
2023-12-19T05:11:06.083Z,6.45
2023-12-19T05:13:32.901Z,6.80
2023-12-19T05:15:59.788Z,7.10
2023-12-19T05:18:29.590Z,7.20
2023-12-19T05:20:57.864Z,7.13
2023-12-19T05:23:24.661Z,7.60
2023-12-19T05:25:51.486Z,7.57
2023-12-19T05:28:18.775Z,7.80
2023-12-19T05:30:45.982Z,7.32
2023-12-19T05:33:12.840Z,7.60
2023-12-19T05:35:39.742Z,7.05
2023-12-19T05:38:06.550Z,7.75
2023-12-19T05:40:33.548Z,7.35
2023-12-19T05:43:00.547Z,8.45
2023-12-19T05:45:27.451Z,8.10
2023-12-19T05:47:54.451Z,8.05
2023-12-19T05:50:21.475Z,8.55
2023-12-19T05:52:48.928Z,7.57
2023-12-19T05:55:16.037Z,7.88
2023-12-19T05:57:42.929Z,7.75
2023-12-19T06:00:11.016Z,7.22
2023-12-19T06:02:38.160Z,8.50
2023-12-19T06:05:08.606Z,7.60
2023-12-19T06:07:37.285Z,6.53
2023-12-19T06:10:09.713Z,5.47
2023-12-19T06:12:36.819Z,7.30
2023-12-19T06:15:04.850Z,7.18
2023-12-19T06:17:31.743Z,5.68
2023-12-19T06:19:58.767Z,5.93
2023-12-19T06:22:25.710Z,7.22
2023-12-19T06:24:52.571Z,6.15
2023-12-19T06:27:19.382Z,6.10
2023-12-19T06:29:47.217Z,5.55
2023-12-19T06:32:14.187Z,4.97
2023-12-19T06:34:41.329Z,5.63
2023-12-19T06:37:08.308Z,5.40
2023-12-19T06:39:37.461Z,5.47
2023-12-19T06:42:04.657Z,5.13
2023-12-19T06:44:31.496Z,4.55
2023-12-19T06:46:58.490Z,5.38
2023-12-19T06:49:28.028Z,4.75
2023-12-19T06:51:55.323Z,4.40
2023-12-19T06:54:22.297Z,4.60
2023-12-19T06:56:49.151Z,4.68
2023-12-19T06:59:16.094Z,4.53
2023-12-19T07:01:43.569Z,4.57
2023-12-19T07:04:10.745Z,4.45
2023-12-19T07:06:37.607Z,4.95
2023-12-19T07:09:04.485Z,4.13
2023-12-19T07:11:31.341Z,5.15
2023-12-19T07:13:58.225Z,4.72
2023-12-19T07:16:26.900Z,5.35
2023-12-19T07:18:54.008Z,4.97
2023-12-19T07:21:22.142Z,5.03
2023-12-19T07:23:54.145Z,4.97
2023-12-19T07:26:26.214Z,4.82
2023-12-19T07:28:53.174Z,5.22
2023-12-19T07:31:27.920Z,4.88
2023-12-19T07:33:58.894Z,4.38
2023-12-19T07:36:27.105Z,5.05
2023-12-19T07:38:54.544Z,4.90
2023-12-19T07:41:21.892Z,5.53
2023-12-19T07:43:48.804Z,4.80
2023-12-19T07:46:16.106Z,4.85
2023-12-19T07:48:43.246Z,4.90
2023-12-19T07:51:20.084Z,4.95
2023-12-19T07:53:47.022Z,4.65
2023-12-19T07:56:14.016Z,4.68
2023-12-19T07:58:41.013Z,4.78
2023-12-19T08:01:13.065Z,3.97
2023-12-19T08:03:41.873Z,4.32
2023-12-19T08:06:09.276Z,4.63
2023-12-19T08:08:36.201Z,4.00
2023-12-19T08:11:03.141Z,4.45
2023-12-19T08:13:30.634Z,4.25
2023-12-19T08:15:57.884Z,4.57
2023-12-19T08:18:27.532Z,4.50
2023-12-19T08:20:54.544Z,4.07
2023-12-19T08:23:21.500Z,4.30
2023-12-19T08:25:48.347Z,4.60
2023-12-19T08:28:15.929Z,3.83
2023-12-19T08:30:43.045Z,4.05
2023-12-19T08:33:10.350Z,3.83
2023-12-19T08:35:37.393Z,4.07
2023-12-19T08:38:04.464Z,3.90
2023-12-19T08:40:31.486Z,4.68
2023-12-19T08:42:58.984Z,3.75
2023-12-19T08:45:27.941Z,4.53
2023-12-19T08:47:56.036Z,4.80
2023-12-19T08:50:23.363Z,4.45
2023-12-19T08:52:51.076Z,4.70
2023-12-19T08:55:18.090Z,4.38
2023-12-19T08:57:46.686Z,4.30
2023-12-19T09:00:19.704Z,4.63
2023-12-19T09:02:47.570Z,4.60
2023-12-19T09:05:19.452Z,3.85
2023-12-19T09:07:50.450Z,4.57
2023-12-19T09:10:18.375Z,3.97
2023-12-19T09:12:46.168Z,3.95
2023-12-19T09:15:13.473Z,4.80
2023-12-19T09:17:40.723Z,4.72
2023-12-19T09:20:09.685Z,4.68
2023-12-19T09:22:37.174Z,4.90
2023-12-19T09:25:04.582Z,4.78
2023-12-19T09:27:31.881Z,5.28
2023-12-19T09:29:59.494Z,4.82
2023-12-19T09:32:26.897Z,5.25
2023-12-19T09:34:55.119Z,5.50
2023-12-19T09:37:24.797Z,5.88
2023-12-19T09:39:54.105Z,5.72
2023-12-19T09:42:22.185Z,6.05
2023-12-19T09:44:49.278Z,6.40
2023-12-19T09:47:27.124Z,5.40
2023-12-19T09:49:59.022Z,5.47
2023-12-19T09:52:26.720Z,5.32
2023-12-19T09:54:53.963Z,5.00
2023-12-19T09:57:21.852Z,5.90
2023-12-19T09:59:57.709Z,5.78
2023-12-19T10:02:28.209Z,6.25
2023-12-19T10:04:56.593Z,6.43
2023-12-19T10:07:23.663Z,6.00
2023-12-19T10:09:57.759Z,6.55
2023-12-19T10:12:33.495Z,5.90
2023-12-19T10:15:15.707Z,5.95
2023-12-19T10:18:02.832Z,6.38
2023-12-19T10:20:30.319Z,5.97
2023-12-19T10:23:06.907Z,6.30
2023-12-19T10:25:42.580Z,6.90
2023-12-19T10:28:14.051Z,6.80
2023-12-19T10:30:42.080Z,6.47
2023-12-19T10:33:09.399Z,7.10
2023-12-19T10:35:40.556Z,7.47
2023-12-19T10:38:09.750Z,7.13
2023-12-19T10:40:37.980Z,7.78
2023-12-19T10:43:05.826Z,7.78
2023-12-19T10:45:34.304Z,7.07
2023-12-19T10:48:01.955Z,7.65
2023-12-19T10:50:30.556Z,7.18
2023-12-19T10:53:02.409Z,7.05
2023-12-19T10:55:38.376Z,6.78
2023-12-19T10:58:06.235Z,7.00
2023-12-19T11:00:38.402Z,7.10
2023-12-19T11:03:18.995Z,8.23
2023-12-19T11:05:47.776Z,8.10
2023-12-19T11:08:23.242Z,6.85
2023-12-19T11:11:03.635Z,8.15
2023-12-19T11:13:32.466Z,8.07
2023-12-19T11:16:37.821Z,7.20
2023-12-19T11:19:13.254Z,8.10
2023-12-19T11:21:59.011Z,7.88
2023-12-19T11:24:36.227Z,7.50
2023-12-19T11:27:19.928Z,8.32
2023-12-19T11:29:48.872Z,7.55
2023-12-19T11:32:28.293Z,8.90
2023-12-19T11:35:16.928Z,9.70
2023-12-19T11:37:46.157Z,8.48
2023-12-19T11:40:48.958Z,8.02
2023-12-19T11:43:31.461Z,8.60
2023-12-19T11:46:19.219Z,8.50
2023-12-19T11:48:53.442Z,7.47
2023-12-19T11:51:56.847Z,7.15
2023-12-19T11:54:24.084Z,8.57
2023-12-19T11:57:01.601Z,8.65
2023-12-19T11:59:53.404Z,7.70
2023-12-19T12:02:30.466Z,7.75
2023-12-19T12:05:09.840Z,7.90
2023-12-19T12:07:51.534Z,8.10
2023-12-19T12:10:28.028Z,8.20
2023-12-19T12:12:57.189Z,9.43
2023-12-19T12:15:25.550Z,9.15
2023-12-19T12:18:06.052Z,8.30
2023-12-19T12:20:35.136Z,8.50
2023-12-19T12:23:02.972Z,8.90
2023-12-19T12:25:30.225Z,8.15
2023-12-19T12:28:16.085Z,8.10
2023-12-19T12:30:43.610Z,6.97
2023-12-19T12:33:11.081Z,8.35
2023-12-19T12:35:41.018Z,8.95
2023-12-19T12:38:19.188Z,8.77
2023-12-19T12:41:01.133Z,7.45
2023-12-19T12:44:06.047Z,7.65
2023-12-19T12:46:32.900Z,7.53
2023-12-19T12:49:00.029Z,6.65
2023-12-19T12:51:27.992Z,7.38
2023-12-19T12:53:59.867Z,8.55
2023-12-19T12:56:32.123Z,7.55
2023-12-19T12:59:04.822Z,7.57
2023-12-19T13:01:32.591Z,8.15
2023-12-19T13:04:00.100Z,8.07
2023-12-19T13:06:27.435Z,10.60
2023-12-19T13:08:54.373Z,8.00
2023-12-19T13:11:22.393Z,8.30
2023-12-19T13:13:49.921Z,8.77
2023-12-19T13:16:17.969Z,8.52
2023-12-19T13:18:49.413Z,8.23
2023-12-19T13:21:17.359Z,7.25
2023-12-19T13:23:44.387Z,7.18
2023-12-19T13:26:11.581Z,7.70
2023-12-19T13:28:39.927Z,6.32
2023-12-19T13:31:10.012Z,6.03
2023-12-19T13:33:39.287Z,6.97
2023-12-19T13:36:06.577Z,6.65
2023-12-19T13:38:33.519Z,6.13
2023-12-19T13:41:01.848Z,6.68
2023-12-19T13:43:30.034Z,5.35
2023-12-19T13:45:56.904Z,5.63
2023-12-19T13:48:24.078Z,6.07
2023-12-19T13:50:51.111Z,5.43
2023-12-19T13:53:18.459Z,5.28
2023-12-19T13:55:46.540Z,5.50
2023-12-19T13:58:13.509Z,5.15
2023-12-19T14:00:40.591Z,4.85
2023-12-19T14:03:07.598Z,5.20
2023-12-19T14:05:34.575Z,5.38
2023-12-19T14:08:01.565Z,5.68
2023-12-19T14:10:30.816Z,5.70
2023-12-19T14:13:01.862Z,5.07
2023-12-19T14:15:29.089Z,4.97
2023-12-19T14:17:56.257Z,6.25
2023-12-19T14:20:23.427Z,5.28
2023-12-19T14:22:50.555Z,5.82
2023-12-19T14:25:18.368Z,5.45
2023-12-19T14:27:45.691Z,5.30
2023-12-19T14:30:13.031Z,5.18
2023-12-19T14:32:40.248Z,4.63
2023-12-19T14:35:09.993Z,4.32
2023-12-19T14:37:37.625Z,4.13
2023-12-19T14:40:05.259Z,5.63
2023-12-19T14:42:33.067Z,5.55
2023-12-19T14:45:00.504Z,5.60
2023-12-19T14:47:30.006Z,5.63
2023-12-19T14:49:57.332Z,5.65
2023-12-19T14:52:24.593Z,5.65
2023-12-19T14:54:51.631Z,5.63
2023-12-19T14:57:18.999Z,6.15
2023-12-19T14:59:46.023Z,6.10
2023-12-19T15:02:12.867Z,5.75
2023-12-19T15:04:39.945Z,6.00
2023-12-19T15:07:07.056Z,6.07
2023-12-19T15:09:34.866Z,5.47
2023-12-19T15:12:02.938Z,5.70
2023-12-19T15:14:29.800Z,5.85
2023-12-19T15:16:57.371Z,6.65
2023-12-19T15:19:24.331Z,5.95
2023-12-19T15:21:52.418Z,5.63
2023-12-19T15:24:19.587Z,6.40
2023-12-19T15:26:46.548Z,6.15
2023-12-19T15:29:15.911Z,5.82
2023-12-19T15:31:44.925Z,6.25
2023-12-19T15:34:13.124Z,6.78
2023-12-19T15:36:40.618Z,7.30
2023-12-19T15:39:08.531Z,6.95
2023-12-19T15:41:35.616Z,6.90
2023-12-19T15:44:08.768Z,6.40
2023-12-19T15:46:42.966Z,6.50
2023-12-19T15:49:12.143Z,7.53
2023-12-19T15:51:39.356Z,7.32
2023-12-19T15:54:07.158Z,7.65
2023-12-19T15:56:34.995Z,6.47
2023-12-19T15:59:08.026Z,7.10
2023-12-19T16:01:35.973Z,7.68
2023-12-19T16:04:04.008Z,7.18
2023-12-19T16:06:31.383Z,7.28
2023-12-19T16:08:58.608Z,8.57
2023-12-19T16:11:26.591Z,8.23
2023-12-19T16:13:54.468Z,7.82
2023-12-19T16:16:22.309Z,7.03
2023-12-19T16:18:49.852Z,7.03
2023-12-19T16:21:18.838Z,7.10
2023-12-19T16:23:57.555Z,7.05
2023-12-19T16:26:31.516Z,7.30
2023-12-19T16:28:58.602Z,6.40
2023-12-19T16:31:26.534Z,7.25
2023-12-19T16:33:53.634Z,7.68
2023-12-19T16:36:20.679Z,7.30
2023-12-19T16:38:49.337Z,8.02
2023-12-19T16:41:18.948Z,7.75
2023-12-19T16:43:47.407Z,6.43
2023-12-19T16:46:15.198Z,7.53
2023-12-19T16:48:43.382Z,7.82
2023-12-19T16:51:10.901Z,7.80
2023-12-19T16:53:38.137Z,8.48
2023-12-19T16:56:05.475Z,8.45
2023-12-19T16:58:40.344Z,8.32
2023-12-19T17:01:14.218Z,8.07
2023-12-19T17:03:43.529Z,8.60
2023-12-19T17:06:11.204Z,7.93
2023-12-19T17:08:38.173Z,8.18
2023-12-19T17:11:05.230Z,8.80
2023-12-19T17:13:32.260Z,8.90
2023-12-19T17:15:59.706Z,9.90
2023-12-19T17:18:26.909Z,9.52
2023-12-19T17:20:53.868Z,9.05
2023-12-19T17:23:23.604Z,9.02
2023-12-19T17:25:51.300Z,9.32
2023-12-19T17:28:18.571Z,10.48
2023-12-19T17:30:46.132Z,9.27
2023-12-19T17:33:13.292Z,9.45
2023-12-19T17:35:40.522Z,10.93
2023-12-19T17:38:07.434Z,10.10
2023-12-19T17:40:34.384Z,9.80
2023-12-19T17:43:01.332Z,8.02
2023-12-19T17:45:28.405Z,8.88
2023-12-19T17:47:55.430Z,8.75
2023-12-19T17:50:22.372Z,9.60
2023-12-19T17:52:49.516Z,9.52
2023-12-19T17:55:17.018Z,10.05
2023-12-19T17:57:44.746Z,9.10
2023-12-19T18:00:12.865Z,10.00
2023-12-19T18:02:39.798Z,8.25
2023-12-19T18:05:07.957Z,8.77
2023-12-19T18:07:35.007Z,9.90
2023-12-19T18:10:04.067Z,8.93
2023-12-19T18:12:32.812Z,8.82
2023-12-19T18:14:59.930Z,9.30
2023-12-19T18:17:27.093Z,9.23
2023-12-19T18:19:56.305Z,9.23
2023-12-19T18:22:23.442Z,9.40
2023-12-19T18:24:50.412Z,8.15
2023-12-19T18:27:17.372Z,7.38
2023-12-19T18:29:45.582Z,8.30
2023-12-19T18:32:12.474Z,7.95
2023-12-19T18:34:39.888Z,7.88
2023-12-19T18:37:06.812Z,8.10
2023-12-19T18:39:33.741Z,8.25
2023-12-19T18:42:00.814Z,8.73
2023-12-19T18:44:27.691Z,6.30
2023-12-19T18:46:54.653Z,6.28
2023-12-19T18:49:22.742Z,4.47
2023-12-19T18:51:49.903Z,4.97
2023-12-19T18:54:17.480Z,4.70
2023-12-19T18:56:44.373Z,3.78
2023-12-19T18:59:12.500Z,4.13
2023-12-19T19:01:39.475Z,3.58
2023-12-19T19:04:06.829Z,3.40
2023-12-19T19:06:34.119Z,3.45
2023-12-19T19:09:01.154Z,3.55
2023-12-19T19:11:30.859Z,2.80
2023-12-19T19:13:58.640Z,3.25
2023-12-19T19:16:25.619Z,2.72
2023-12-19T19:18:52.623Z,3.05
2023-12-19T19:21:19.603Z,2.90
2023-12-19T19:23:50.290Z,2.70
2023-12-19T19:26:17.792Z,3.05
2023-12-19T19:28:44.716Z,2.80
2023-12-19T19:31:11.815Z,2.85
2023-12-19T19:33:39.040Z,2.60
2023-12-19T19:36:06.486Z,2.90
2023-12-19T19:38:33.397Z,3.13
2023-12-19T19:41:01.749Z,2.67
2023-12-19T19:43:29.393Z,2.58
2023-12-19T19:46:00.924Z,2.88
2023-12-19T19:48:28.314Z,2.38
2023-12-19T19:50:57.433Z,2.33
2023-12-19T19:53:24.426Z,2.13
2023-12-19T19:55:51.392Z,2.03
2023-12-19T19:58:18.487Z,1.58
2023-12-19T20:00:45.563Z,1.88
2023-12-19T20:03:12.515Z,1.55
2023-12-19T20:05:39.473Z,1.67
2023-12-19T20:08:08.418Z,1.15
2023-12-19T20:10:35.690Z,1.30
2023-12-19T20:13:02.757Z,1.60
2023-12-19T20:15:29.640Z,1.05
2023-12-19T20:17:56.669Z,1.50
2023-12-19T20:20:23.701Z,1.00
2023-12-19T20:22:51.654Z,1.38
2023-12-19T20:25:19.973Z,1.73
2023-12-19T20:27:49.051Z,1.58
2023-12-19T20:30:18.847Z,1.83
2023-12-19T20:32:47.724Z,1.52
2023-12-19T20:35:15.752Z,1.35
2023-12-19T20:37:43.018Z,1.45
2023-12-19T20:40:13.372Z,1.38
2023-12-19T20:42:40.545Z,1.20
2023-12-19T20:45:07.975Z,1.15
2023-12-19T20:47:35.048Z,1.30
2023-12-19T20:50:02.780Z,1.45
2023-12-19T20:52:31.719Z,0.80
2023-12-19T20:55:00.604Z,2.08
2023-12-19T20:57:28.573Z,0.80
2023-12-19T20:59:56.502Z,1.30
2023-12-19T21:02:24.043Z,1.60
2023-12-19T21:04:51.313Z,1.38
2023-12-19T21:07:18.419Z,1.85
2023-12-19T21:09:45.879Z,1.58
2023-12-19T21:12:16.163Z,2.03
2023-12-19T21:14:43.079Z,1.77
2023-12-19T21:17:11.290Z,1.05
2023-12-19T21:19:39.143Z,1.27
2023-12-19T21:22:09.504Z,1.70
2023-12-19T21:24:36.512Z,1.52
2023-12-19T21:27:03.692Z,1.83
2023-12-19T21:29:30.792Z,1.60
2023-12-19T21:31:57.687Z,1.58
2023-12-19T21:34:25.029Z,1.52
2023-12-19T21:36:52.051Z,1.10
2023-12-19T21:39:19.092Z,1.65
2023-12-19T21:41:48.569Z,1.63
2023-12-19T21:44:16.491Z,1.65
2023-12-19T21:46:43.326Z,1.65
2023-12-19T21:49:10.356Z,1.50
2023-12-19T21:51:37.776Z,2.15
2023-12-19T21:54:06.516Z,2.70
2023-12-19T21:56:33.473Z,2.42
2023-12-19T21:59:00.422Z,2.13
2023-12-19T22:01:27.496Z,1.50
2023-12-19T22:03:54.564Z,1.50
2023-12-19T22:06:21.646Z,0.80
2023-12-19T22:08:48.712Z,1.42
2023-12-19T22:11:15.737Z,1.17
2023-12-19T22:13:43.543Z,1.27
2023-12-19T22:16:18.339Z,1.27
2023-12-19T22:18:45.545Z,1.67
2023-12-19T22:21:24.654Z,1.05
2023-12-19T22:23:53.108Z,1.60
2023-12-19T22:26:21.082Z,2.30
2023-12-19T22:28:48.314Z,2.85
2023-12-19T22:31:16.182Z,2.33
2023-12-19T22:33:44.505Z,1.40
2023-12-19T22:36:12.046Z,1.20
2023-12-19T22:38:38.893Z,1.58
2023-12-19T22:41:06.032Z,0.93
2023-12-19T22:43:32.940Z,1.75
2023-12-19T22:46:01.119Z,1.65
2023-12-19T22:48:28.142Z,0.70
2023-12-19T22:50:54.982Z,1.40
2023-12-19T22:53:21.926Z,1.00
2023-12-19T22:55:48.890Z,1.17
2023-12-19T22:58:16.644Z,1.25
2023-12-19T23:00:43.873Z,0.85
2023-12-19T23:03:12.350Z,1.20
2023-12-19T23:05:39.469Z,0.80
2023-12-19T23:08:06.989Z,1.13
2023-12-19T23:10:37.935Z,1.00
2023-12-19T23:13:06.440Z,1.38
2023-12-19T23:15:34.687Z,0.90
2023-12-19T23:18:02.640Z,1.35
2023-12-19T23:20:32.713Z,0.98
2023-12-19T23:23:00.041Z,1.58
2023-12-19T23:25:27.296Z,0.60
2023-12-19T23:27:55.098Z,1.08
2023-12-19T23:30:22.418Z,0.80
2023-12-19T23:32:49.440Z,0.80
2023-12-19T23:35:16.526Z,0.95
2023-12-19T23:37:43.832Z,0.70
2023-12-19T23:40:11.800Z,1.20
2023-12-19T23:42:38.857Z,0.70
2023-12-19T23:45:07.440Z,0.88
2023-12-19T23:47:34.858Z,1.05
2023-12-19T23:50:02.325Z,1.42
2023-12-19T23:52:29.530Z,0.85
2023-12-19T23:54:56.758Z,1.20
2023-12-19T23:57:23.691Z,0.70
2023-12-19T23:59:50.707Z,0.65
